createdAt,value
2023-04-19T00:12:58.493Z,14.50
2023-04-19T00:21:41.863Z,14.40
2023-04-19T00:41:15.599Z,14.30
2023-04-19T01:04:51.711Z,14.30
2023-04-19T03:38:29.609Z,13.90
2023-04-19T04:21:28.484Z,13.70
2023-04-19T04:26:50.673Z,13.70
2023-04-19T04:30:15.659Z,13.70
2023-04-19T04:38:41.432Z,13.70
2023-04-19T04:41:28.383Z,13.60
2023-04-19T04:44:11.351Z,13.60
2023-04-19T04:46:45.393Z,13.60
2023-04-19T04:52:21.882Z,13.60
2023-04-19T04:55:10.809Z,13.60
2023-04-19T05:14:24.203Z,13.50
2023-04-19T05:20:10.440Z,13.50
2023-04-19T05:23:20.124Z,13.50
2023-04-19T05:29:05.509Z,13.50
2023-04-19T05:35:10.674Z,13.50
2023-04-19T05:42:49.678Z,13.50
2023-04-19T05:45:14.937Z,13.50
2023-04-19T05:47:51.094Z,13.50
2023-04-19T05:50:35.428Z,13.50
2023-04-19T05:53:29.764Z,13.50
2023-04-19T05:56:18.376Z,13.50
2023-04-19T05:58:48.533Z,13.50
2023-04-19T06:08:40.262Z,13.60
2023-04-19T06:23:08.873Z,13.70
2023-04-19T06:30:52.197Z,13.80
2023-04-19T06:33:20.985Z,13.80
2023-04-19T06:36:25.377Z,13.80
2023-04-19T06:39:10.649Z,13.80
2023-04-19T06:41:36.360Z,13.90
2023-04-19T06:46:40.971Z,13.90
2023-04-19T06:48:52.745Z,14.00
2023-04-19T06:51:06.788Z,14.00
2023-04-19T06:53:15.368Z,14.00
2023-04-19T06:55:22.392Z,14.10
2023-04-19T06:57:24.176Z,14.10
2023-04-19T06:59:28.157Z,14.10
2023-04-19T07:01:29.893Z,14.20
2023-04-19T07:03:31.906Z,14.20
2023-04-19T07:05:33.766Z,14.20
2023-04-19T07:07:38.237Z,14.20
2023-04-19T07:09:40.021Z,14.30
2023-04-19T07:11:41.698Z,14.30
2023-04-19T07:13:43.658Z,14.30
2023-04-19T07:15:45.683Z,14.40
2023-04-19T07:17:47.377Z,14.40
2023-04-19T07:19:49.421Z,14.40
2023-04-19T07:21:51.266Z,14.50
2023-04-19T07:23:52.950Z,14.50
2023-04-19T07:25:54.696Z,14.50
2023-04-19T07:27:56.584Z,14.50
2023-04-19T07:29:58.312Z,14.60
2023-04-19T07:32:01.698Z,14.60
2023-04-19T07:34:03.436Z,14.60
2023-04-19T07:36:06.483Z,14.60
2023-04-19T07:38:08.204Z,14.60
2023-04-19T07:40:10.190Z,14.70
2023-04-19T07:42:11.889Z,14.70
2023-04-19T07:44:13.730Z,14.70
2023-04-19T07:46:18.528Z,14.80
2023-04-19T07:48:20.376Z,14.80
2023-04-19T07:50:23.233Z,14.80
2023-04-19T07:52:25.535Z,14.80
2023-04-19T07:54:27.423Z,14.80
2023-04-19T07:56:35.121Z,14.80
2023-04-19T07:58:37.534Z,14.80
2023-04-19T08:00:39.259Z,14.90
2023-04-19T08:02:45.111Z,14.90
2023-04-19T08:04:49.923Z,14.90
2023-04-19T08:06:53.161Z,14.90
2023-04-19T08:08:55.892Z,14.90
2023-04-19T08:11:00.178Z,14.90
2023-04-19T08:13:06.280Z,15.00
2023-04-19T08:15:29.586Z,15.00
2023-04-19T08:19:50.623Z,15.00
2023-04-19T08:22:05.375Z,15.00
2023-04-19T08:24:35.544Z,15.00
2023-04-19T08:27:18.474Z,15.00
2023-04-19T08:29:24.734Z,15.00
2023-04-19T08:31:29.742Z,15.00
2023-04-19T08:33:38.895Z,15.00
2023-04-19T08:35:50.182Z,15.10
2023-04-19T08:37:56.329Z,15.10
2023-04-19T08:40:00.570Z,15.10
2023-04-19T08:42:21.168Z,15.10
2023-04-19T08:44:36.443Z,15.10
2023-04-19T08:46:39.718Z,15.20
2023-04-19T08:48:41.633Z,15.20
2023-04-19T08:51:00.534Z,15.30
2023-04-19T08:53:20.872Z,15.20
2023-04-19T08:55:27.716Z,15.30
2023-04-19T08:57:32.689Z,15.30
2023-04-19T08:59:34.581Z,15.40
2023-04-19T09:01:37.086Z,15.40
2023-04-19T09:03:58.343Z,15.40
2023-04-19T09:06:05.993Z,15.50
2023-04-19T09:08:22.991Z,15.50
2023-04-19T09:10:26.260Z,15.50
2023-04-19T09:12:27.964Z,15.60
2023-04-19T09:14:29.701Z,15.60
2023-04-19T09:16:31.417Z,15.60
2023-04-19T09:18:35.783Z,15.70
2023-04-19T09:20:40.769Z,15.70
2023-04-19T09:22:42.450Z,15.70
2023-04-19T09:26:54.962Z,15.80
2023-04-19T09:28:57.615Z,15.80
2023-04-19T09:33:14.722Z,15.90
2023-04-19T09:35:16.614Z,15.90
2023-04-19T09:37:38.504Z,15.90
2023-04-19T09:39:39.938Z,16.00
2023-04-19T09:41:54.412Z,16.00
2023-04-19T09:46:35.518Z,16.10
2023-04-19T09:48:37.306Z,16.10
2023-04-19T09:51:11.871Z,16.10
2023-04-19T09:53:15.911Z,16.10
2023-04-19T09:55:26.709Z,16.20
2023-04-19T09:57:31.017Z,16.20
2023-04-19T09:59:32.672Z,16.20
2023-04-19T10:01:35.499Z,16.20
2023-04-19T10:03:37.510Z,16.20
2023-04-19T10:05:42.907Z,16.20
2023-04-19T10:07:44.827Z,16.20
2023-04-19T10:12:00.490Z,16.20
2023-04-19T10:14:09.370Z,16.20
2023-04-19T10:16:19.010Z,16.20
2023-04-19T10:18:21.583Z,16.20
2023-04-19T10:20:29.476Z,16.20
2023-04-19T10:22:31.409Z,16.20
2023-04-19T10:24:33.698Z,16.20
2023-04-19T10:26:54.121Z,16.20
2023-04-19T10:28:58.732Z,16.20
2023-04-19T10:31:03.838Z,16.20
2023-04-19T10:33:06.939Z,16.20
2023-04-19T10:35:09.418Z,16.20
2023-04-19T10:37:11.467Z,16.10
2023-04-19T10:39:33.070Z,16.10
2023-04-19T10:41:56.904Z,16.10
2023-04-19T10:43:58.534Z,16.10
2023-04-19T10:46:01.555Z,16.10
2023-04-19T10:48:04.751Z,16.10
2023-04-19T10:50:08.845Z,16.00
2023-04-19T10:52:26.477Z,16.00
2023-04-19T10:54:29.949Z,16.00
2023-04-19T10:56:34.453Z,16.00
2023-04-19T10:58:54.680Z,16.00
2023-04-19T11:01:15.440Z,16.00
2023-04-19T11:03:36.159Z,15.90
2023-04-19T11:05:57.885Z,15.90
2023-04-19T11:07:59.639Z,15.90
2023-04-19T11:10:01.363Z,15.90
2023-04-19T11:12:10.779Z,15.90
2023-04-19T11:14:13.492Z,15.90
2023-04-19T11:16:17.167Z,15.90
2023-04-19T11:18:20.195Z,15.90
2023-04-19T11:20:23.552Z,15.90
2023-04-19T11:22:35.984Z,15.90
2023-04-19T11:24:37.610Z,15.90
2023-04-19T11:26:39.503Z,15.90
2023-04-19T11:28:41.344Z,15.90
2023-04-19T11:30:46.289Z,15.90
2023-04-19T11:32:49.204Z,15.90
2023-04-19T11:34:51.898Z,15.90
2023-04-19T11:36:53.871Z,15.90
2023-04-19T11:38:55.656Z,15.90
2023-04-19T11:41:01.171Z,16.00
2023-04-19T11:43:04.906Z,16.00
2023-04-19T11:45:13.166Z,16.00
2023-04-19T11:47:21.128Z,16.00
2023-04-19T11:49:26.393Z,16.10
2023-04-19T11:51:28.176Z,16.10
2023-04-19T11:53:31.288Z,16.10
2023-04-19T11:55:33.281Z,16.10
2023-04-19T11:57:34.975Z,16.20
2023-04-19T11:59:36.860Z,16.20
2023-04-19T12:01:41.339Z,16.30
2023-04-19T12:03:53.476Z,16.30
2023-04-19T12:06:00.616Z,16.30
2023-04-19T12:08:03.903Z,16.40
2023-04-19T12:10:11.875Z,16.50
2023-04-19T12:12:13.529Z,16.50
2023-04-19T12:14:16.316Z,16.60
2023-04-19T12:16:27.510Z,16.70
2023-04-19T12:18:43.096Z,16.80
2023-04-19T12:20:46.114Z,16.90
2023-04-19T12:22:47.795Z,17.00
2023-04-19T12:24:53.496Z,17.20
2023-04-19T12:26:56.827Z,17.30
2023-04-19T12:28:59.422Z,17.50
2023-04-19T12:31:01.097Z,17.60
2023-04-19T12:33:02.865Z,17.70
2023-04-19T12:35:04.603Z,17.90
2023-04-19T12:37:06.258Z,18.00
2023-04-19T12:39:08.554Z,18.00
2023-04-19T12:41:10.404Z,18.10
2023-04-19T12:43:12.100Z,18.20
2023-04-19T12:45:16.093Z,18.20
2023-04-19T12:47:17.744Z,18.30
2023-04-19T12:49:22.145Z,18.30
2023-04-19T12:51:23.777Z,18.40
2023-04-19T12:53:25.650Z,18.40
2023-04-19T12:55:27.643Z,18.40
2023-04-19T12:57:30.076Z,18.40
2023-04-19T12:59:32.164Z,18.50
2023-04-19T13:01:33.922Z,18.50
2023-04-19T13:03:36.692Z,18.50
2023-04-19T13:11:34.683Z,18.60
2023-04-19T13:13:39.244Z,18.60
2023-04-19T13:16:11.702Z,18.50
2023-04-19T13:18:29.736Z,18.50
2023-04-19T13:20:42.219Z,18.50
2023-04-19T13:22:44.040Z,18.50
2023-04-19T13:24:48.435Z,18.40
2023-04-19T13:26:52.885Z,18.40
2023-04-19T13:29:00.637Z,18.40
2023-04-19T13:31:22.612Z,18.30
2023-04-19T13:33:25.907Z,18.30
2023-04-19T13:35:27.700Z,18.30
2023-04-19T13:37:29.572Z,18.30
2023-04-19T13:39:40.962Z,18.30
2023-04-19T13:41:48.142Z,18.30
2023-04-19T13:43:57.313Z,18.40
2023-04-19T13:46:24.025Z,18.50
2023-04-19T13:48:29.161Z,18.60
2023-04-19T13:50:30.979Z,18.70
2023-04-19T13:52:35.870Z,18.80
2023-04-19T13:54:37.996Z,18.90
2023-04-19T13:56:39.728Z,19.00
2023-04-19T13:58:41.677Z,19.00
2023-04-19T14:00:43.660Z,19.00
2023-04-19T14:02:45.793Z,19.10
2023-04-19T14:04:50.175Z,19.10
2023-04-19T14:06:51.980Z,19.00
2023-04-19T14:08:53.767Z,19.00
2023-04-19T14:10:55.480Z,19.00
2023-04-19T14:12:57.173Z,18.90
2023-04-19T14:14:59.046Z,18.90
2023-04-19T14:17:00.848Z,18.80
2023-04-19T14:19:02.616Z,18.80
2023-04-19T14:21:04.481Z,18.70
2023-04-19T14:23:06.232Z,18.70
2023-04-19T14:25:08.108Z,18.60
2023-04-19T14:27:11.629Z,18.60
2023-04-19T14:29:13.617Z,18.60
2023-04-19T14:31:15.438Z,18.60
2023-04-19T14:33:17.116Z,18.50
2023-04-19T14:35:19.766Z,18.50
2023-04-19T14:37:21.778Z,18.50
2023-04-19T14:39:24.081Z,18.50
2023-04-19T14:41:25.893Z,18.50
2023-04-19T14:43:27.601Z,18.50
2023-04-19T14:45:29.465Z,18.50
2023-04-19T14:47:31.392Z,18.50
2023-04-19T14:49:33.265Z,18.50
2023-04-19T14:51:34.992Z,18.50
2023-04-19T14:53:36.804Z,18.50
2023-04-19T14:55:38.581Z,18.50
2023-04-19T14:57:40.411Z,18.40
2023-04-19T14:59:42.204Z,18.40
2023-04-19T15:01:43.974Z,18.40
2023-04-19T15:03:46.370Z,18.50
2023-04-19T15:05:48.339Z,18.50
2023-04-19T15:07:50.125Z,18.50
2023-04-19T15:09:51.859Z,18.60
2023-04-19T15:11:53.550Z,18.60
2023-04-19T15:13:55.984Z,18.70
2023-04-19T15:15:57.842Z,18.80
2023-04-19T15:17:59.629Z,18.80
2023-04-19T15:20:01.445Z,18.80
2023-04-19T15:22:04.128Z,18.80
2023-04-19T15:24:07.541Z,18.80
2023-04-19T15:26:09.819Z,18.80
2023-04-19T15:28:11.587Z,18.80
2023-04-19T15:30:13.397Z,18.80
2023-04-19T15:32:15.775Z,18.90
2023-04-19T15:34:17.508Z,18.90
2023-04-19T15:36:19.297Z,18.90
2023-04-19T15:38:24.856Z,19.00
2023-04-19T15:40:28.275Z,19.10
2023-04-19T15:42:30.086Z,19.20
2023-04-19T15:44:31.854Z,19.20
2023-04-19T15:46:33.717Z,19.20
2023-04-19T15:48:35.519Z,19.30
2023-04-19T15:50:37.571Z,19.30
2023-04-19T15:52:39.294Z,19.30
2023-04-19T15:54:41.001Z,19.30
2023-04-19T15:56:42.697Z,19.30
2023-04-19T15:58:44.437Z,19.30
2023-04-19T16:00:46.116Z,19.30
2023-04-19T16:02:48.450Z,19.30
2023-04-19T16:04:50.461Z,19.30
2023-04-19T16:06:52.252Z,19.20
2023-04-19T16:08:53.973Z,19.20
2023-04-19T16:10:55.673Z,19.10
2023-04-19T16:12:57.424Z,19.10
2023-04-19T16:14:59.194Z,19.00
2023-04-19T16:17:01.102Z,18.90
2023-04-19T16:19:02.895Z,18.90
2023-04-19T16:21:04.822Z,18.80
2023-04-19T16:23:06.628Z,18.80
2023-04-19T16:25:10.240Z,18.70
2023-04-19T16:27:12.322Z,18.70
2023-04-19T16:29:14.208Z,18.60
2023-04-19T16:31:16.030Z,18.50
2023-04-19T16:33:17.817Z,18.40
2023-04-19T16:35:19.628Z,18.40
2023-04-19T16:37:21.461Z,18.30
2023-04-19T16:39:23.447Z,18.30
2023-04-19T16:41:25.203Z,18.30
2023-04-19T16:43:26.932Z,18.20
2023-04-19T16:45:31.495Z,18.10
2023-04-19T16:47:33.842Z,18.10
2023-04-19T16:49:35.804Z,18.00
2023-04-19T16:51:37.568Z,18.00
2023-04-19T16:53:39.354Z,17.90
2023-04-19T16:55:41.175Z,17.90
2023-04-19T16:57:42.974Z,17.80
2023-04-19T16:59:44.877Z,17.80
2023-04-19T17:01:46.869Z,17.70
2023-04-19T17:03:49.221Z,17.70
2023-04-19T17:05:51.226Z,17.60
2023-04-19T17:07:54.781Z,17.60
2023-04-19T17:09:58.943Z,17.50
2023-04-19T17:12:01.966Z,17.50
2023-04-19T17:14:04.325Z,17.40
2023-04-19T17:16:06.331Z,17.30
2023-04-19T17:18:08.298Z,17.30
2023-04-19T17:20:10.143Z,17.20
2023-04-19T17:22:11.950Z,17.20
2023-04-19T17:24:13.776Z,17.10
2023-04-19T17:26:18.354Z,17.10
2023-04-19T17:28:20.192Z,17.00
2023-04-19T17:30:21.995Z,17.00
2023-04-19T17:32:23.899Z,17.00
2023-04-19T17:34:25.702Z,16.90
2023-04-19T17:36:27.998Z,16.90
2023-04-19T17:38:29.752Z,16.90
2023-04-19T17:40:31.541Z,16.80
2023-04-19T17:42:33.312Z,16.80
2023-04-19T17:44:35.153Z,16.80
2023-04-19T17:46:36.951Z,16.70
2023-04-19T17:48:38.753Z,16.70
2023-04-19T17:50:40.631Z,16.60
2023-04-19T17:52:42.356Z,16.60
2023-04-19T17:54:47.929Z,16.50
2023-04-19T17:56:49.734Z,16.50
2023-04-19T17:58:51.486Z,16.50
2023-04-19T18:00:53.249Z,16.40
2023-04-19T18:02:55.339Z,16.40
2023-04-19T18:04:57.361Z,16.30
2023-04-19T18:06:59.680Z,16.30
2023-04-19T18:09:01.505Z,16.20
2023-04-19T18:11:03.207Z,16.20
2023-04-19T18:13:04.957Z,16.10
2023-04-19T18:15:07.224Z,16.10
2023-04-19T18:17:08.992Z,16.10
2023-04-19T18:19:11.026Z,16.10
2023-04-19T18:21:13.340Z,16.00
2023-04-19T18:23:15.143Z,16.00
2023-04-19T18:25:17.328Z,16.00
2023-04-19T18:27:19.169Z,16.00
2023-04-19T18:29:23.049Z,15.90
2023-04-19T18:31:24.869Z,15.90
2023-04-19T18:33:26.669Z,15.90
2023-04-19T18:35:28.451Z,15.90
2023-04-19T18:37:31.392Z,15.80
2023-04-19T18:39:33.615Z,15.80
2023-04-19T18:41:35.991Z,15.80
2023-04-19T18:43:38.057Z,15.70
2023-04-19T18:45:40.704Z,15.70
2023-04-19T18:47:43.021Z,15.70
2023-04-19T18:49:55.598Z,15.60
2023-04-19T18:52:01.942Z,15.60
2023-04-19T18:54:04.557Z,15.50
2023-04-19T18:56:09.606Z,15.50
2023-04-19T18:58:12.129Z,15.40
2023-04-19T19:00:15.502Z,15.40
2023-04-19T19:02:18.120Z,15.40
2023-04-19T19:04:42.834Z,15.40
2023-04-19T19:06:43.715Z,15.30
2023-04-19T19:08:46.227Z,15.30
2023-04-19T19:11:14.270Z,15.30
2023-04-19T19:13:11.420Z,15.20
2023-04-19T19:15:14.092Z,15.10
2023-04-19T19:17:16.637Z,15.10
2023-04-19T19:19:21.060Z,15.00
2023-04-19T19:21:23.576Z,15.00
2023-04-19T19:25:34.100Z,14.90
2023-04-19T19:27:36.586Z,14.90
2023-04-19T19:29:39.233Z,14.80
2023-04-19T19:31:41.644Z,14.80
2023-04-19T19:33:51.936Z,14.80
2023-04-19T19:36:06.528Z,14.70
2023-04-19T19:38:08.949Z,14.70
2023-04-19T19:40:11.531Z,14.60
2023-04-19T19:42:16.388Z,14.60
2023-04-19T19:44:19.125Z,14.50
2023-04-19T19:46:22.982Z,14.50
2023-04-19T19:48:25.935Z,14.40
2023-04-19T19:52:34.753Z,14.40
2023-04-19T19:54:37.268Z,14.30
2023-04-19T19:56:55.623Z,14.30
2023-04-19T19:59:02.243Z,14.20
2023-04-19T20:01:04.892Z,14.20
2023-04-19T20:03:08.404Z,14.20
2023-04-19T20:05:12.743Z,14.20
2023-04-19T20:09:21.389Z,14.10
2023-04-19T20:11:23.661Z,14.10
2023-04-19T20:13:26.192Z,14.10
2023-04-19T20:15:28.741Z,14.00
2023-04-19T20:28:14.104Z,13.90
2023-04-19T20:34:52.467Z,13.80
2023-04-19T20:53:31.528Z,13.50
2023-04-19T20:59:50.293Z,13.40
2023-04-19T21:02:49.890Z,13.40
2023-04-19T21:11:17.784Z,13.30
2023-04-19T21:14:13.669Z,13.30
2023-04-19T21:34:12.656Z,13.10
2023-04-19T21:55:58.749Z,12.80
2023-04-19T22:22:40.588Z,12.50
2023-04-19T22:28:19.773Z,12.40
2023-04-19T22:34:26.912Z,12.40
2023-04-19T22:37:40.515Z,12.30
2023-04-19T23:14:44.822Z,12.00
2023-04-19T23:44:54.762Z,11.60
